createdAt,value
2019-05-18T00:02:21.556Z,97124.28
2019-05-18T00:04:52.156Z,97119.97
2019-05-18T00:07:25.755Z,97121.44
2019-05-18T00:09:56.309Z,97119.03
2019-05-18T00:12:26.931Z,97121.15
2019-05-18T00:14:57.507Z,97127.11
2019-05-18T00:17:28.163Z,97126.09
2019-05-18T00:19:58.700Z,97116.91
2019-05-18T00:22:29.315Z,97119.43
2019-05-18T00:24:59.872Z,97118.03
2019-05-18T00:27:32.125Z,97114.49
2019-05-18T00:30:02.698Z,97122.97
2019-05-18T00:32:33.313Z,97117.22
2019-05-18T00:35:03.936Z,97122.73
2019-05-18T00:37:34.560Z,97130.25
2019-05-18T00:40:07.588Z,97126.05
2019-05-18T00:42:38.229Z,97121.10
2019-05-18T00:45:11.253Z,97124.78
2019-05-18T00:47:42.433Z,97120.09
2019-05-18T00:50:13.408Z,97119.83
2019-05-18T00:52:44.017Z,97118.67
2019-05-18T00:55:14.764Z,97113.13
2019-05-18T00:57:45.369Z,97113.27
2019-05-18T01:00:16.591Z,97115.39
2019-05-18T01:02:47.229Z,97113.88
2019-05-18T01:05:17.868Z,97117.09
2019-05-18T01:07:48.429Z,97114.47
2019-05-18T01:10:18.977Z,97119.50
2019-05-18T01:12:49.590Z,97119.56
2019-05-18T01:15:20.633Z,97115.06
2019-05-18T01:17:57.320Z,97120.75
2019-05-18T01:20:23.524Z,97115.95
2019-05-18T01:22:54.131Z,97123.77
2019-05-18T01:25:24.640Z,97115.08
2019-05-18T01:27:55.274Z,97118.52
2019-05-18T01:30:26.787Z,97114.94
2019-05-18T01:32:59.042Z,97115.89
2019-05-18T01:35:29.605Z,97115.01
2019-05-18T01:38:00.141Z,97114.94
2019-05-18T01:40:30.753Z,97108.55
2019-05-18T01:43:01.298Z,97112.84
2019-05-18T01:45:31.875Z,97113.05
2019-05-18T01:48:13.470Z,97121.28
2019-05-18T01:50:34.758Z,97119.41
2019-05-18T01:53:05.321Z,97111.01
2019-05-18T01:55:35.921Z,97116.48
2019-05-18T01:58:06.471Z,97115.11
2019-05-18T02:00:37.109Z,97115.82
2019-05-18T02:03:09.266Z,97112.87
2019-05-18T02:05:39.863Z,97109.02
2019-05-18T02:08:10.460Z,97113.52
2019-05-18T02:10:41.008Z,97114.05
2019-05-18T02:13:11.625Z,97116.27
2019-05-18T02:15:42.191Z,97120.02
2019-05-18T02:18:26.895Z,97112.91
2019-05-18T02:20:45.077Z,97120.90
2019-05-18T02:23:15.669Z,97118.81
2019-05-18T02:25:46.263Z,97121.80
2019-05-18T02:28:17.862Z,97122.48
2019-05-18T02:30:49.790Z,97119.39
2019-05-18T02:33:20.351Z,97126.23
2019-05-18T02:35:50.909Z,97120.89
2019-05-18T02:38:21.514Z,97118.00
2019-05-18T02:40:52.074Z,97120.56
2019-05-18T02:43:22.653Z,97111.97
2019-05-18T02:45:53.181Z,97108.34
2019-05-18T02:48:25.507Z,97104.41
2019-05-18T02:50:56.080Z,97114.58
2019-05-18T02:53:26.646Z,97102.80
2019-05-18T02:55:57.228Z,97102.00
2019-05-18T02:58:27.840Z,97104.08
2019-05-18T03:00:58.397Z,97102.31
2019-05-18T03:03:28.972Z,97102.25
2019-05-18T03:05:59.745Z,97100.44
2019-05-18T03:08:30.296Z,97098.40
2019-05-18T03:11:01.226Z,97096.78
2019-05-18T03:13:31.813Z,97097.66
2019-05-18T03:16:02.609Z,97098.83
2019-05-18T03:18:33.194Z,97097.34
2019-05-18T03:21:03.762Z,97101.99
2019-05-18T03:23:34.415Z,97103.02
2019-05-18T03:26:04.964Z,97099.97
2019-05-18T03:28:38.555Z,97104.56
2019-05-18T03:31:09.137Z,97100.39
2019-05-18T03:33:39.689Z,97096.84
2019-05-18T03:36:10.263Z,97098.08
2019-05-18T03:38:41.004Z,97094.04
2019-05-18T03:41:11.524Z,97100.44
2019-05-18T03:43:42.150Z,97099.98
2019-05-18T03:46:12.688Z,97098.14
2019-05-18T03:48:43.272Z,97105.77
2019-05-18T03:51:13.869Z,97106.70
2019-05-18T03:53:44.465Z,97109.16
2019-05-18T03:56:15.042Z,97108.08
2019-05-18T03:58:45.639Z,97109.03
2019-05-18T04:01:16.214Z,97107.60
2019-05-18T04:03:46.826Z,97107.48
2019-05-18T04:06:17.364Z,97109.47
2019-05-18T04:08:47.927Z,97114.41
2019-05-18T04:11:18.552Z,97113.36
2019-05-18T04:13:49.160Z,97115.09
2019-05-18T04:16:19.674Z,97123.55
2019-05-18T04:18:50.240Z,97116.25
2019-05-18T04:21:20.773Z,97116.45
2019-05-18T04:23:51.299Z,97111.98
2019-05-18T04:26:21.952Z,97113.16
2019-05-18T04:28:52.500Z,97109.84
2019-05-18T04:31:23.137Z,97106.56
2019-05-18T04:33:53.651Z,97110.28
2019-05-18T04:36:24.251Z,97113.05
2019-05-18T04:38:54.913Z,97117.70
2019-05-18T04:41:25.528Z,97114.64
2019-05-18T04:43:56.079Z,97113.39
2019-05-18T04:46:26.668Z,97112.23
2019-05-18T04:49:00.060Z,97112.53
2019-05-18T04:51:31.773Z,97108.23
2019-05-18T04:54:02.382Z,97107.22
2019-05-18T04:56:34.337Z,97106.92
2019-05-18T04:59:04.957Z,97116.83
2019-05-18T05:01:35.546Z,97122.64
2019-05-18T05:04:06.147Z,97118.02
2019-05-18T05:06:36.753Z,97123.73
2019-05-18T05:09:09.089Z,97120.33
2019-05-18T05:11:39.655Z,97123.26
2019-05-18T05:14:10.181Z,97123.12
2019-05-18T05:16:41.749Z,97122.83
2019-05-18T05:19:12.364Z,97120.58
2019-05-18T05:21:42.912Z,97116.90
2019-05-18T05:24:13.486Z,97115.02
2019-05-18T05:26:44.121Z,97119.02
2019-05-18T05:29:17.641Z,97112.98
2019-05-18T05:31:48.275Z,97124.25
2019-05-18T05:34:18.880Z,97117.34
2019-05-18T05:36:49.474Z,97119.98
2019-05-18T05:39:21.820Z,97115.93
2019-05-18T05:41:52.384Z,97122.91
2019-05-18T05:44:23.029Z,97121.20
2019-05-18T05:46:53.591Z,97128.75
2019-05-18T05:49:26.584Z,97120.02
2019-05-18T05:51:57.160Z,97120.19
2019-05-18T05:54:29.682Z,97121.29
2019-05-18T05:57:00.291Z,97121.92
2019-05-18T05:59:30.897Z,97127.33
2019-05-18T06:02:01.504Z,97132.43
2019-05-18T06:04:32.123Z,97125.58
2019-05-18T06:07:02.682Z,97124.94
2019-05-18T06:09:33.328Z,97120.47
2019-05-18T06:12:04.746Z,97127.25
2019-05-18T06:14:35.380Z,97122.81
2019-05-18T06:17:08.402Z,97124.11
2019-05-18T06:19:38.305Z,97122.81
2019-05-18T06:22:10.147Z,97121.73
2019-05-18T06:24:41.926Z,97123.77
2019-05-18T06:27:12.481Z,97125.70
2019-05-18T06:29:43.778Z,97118.45
2019-05-18T06:32:14.417Z,97120.10
2019-05-18T06:34:45.075Z,97111.02
2019-05-18T06:37:15.633Z,97111.87
2019-05-18T06:39:46.282Z,97110.17
2019-05-18T06:42:16.969Z,97105.47
2019-05-18T06:44:47.624Z,97107.05
2019-05-18T06:47:18.185Z,97113.72
2019-05-18T06:49:48.832Z,97112.31
2019-05-18T06:52:19.398Z,97117.11
2019-05-18T06:54:50.084Z,97114.60
2019-05-18T06:57:23.102Z,97108.84
2019-05-18T06:59:53.918Z,97112.37
2019-05-18T07:02:24.521Z,97114.09
2019-05-18T07:04:55.119Z,97114.08
2019-05-18T07:07:27.452Z,97117.94
2019-05-18T07:09:58.104Z,97112.53
2019-05-18T07:12:29.011Z,97115.23
2019-05-18T07:15:00.518Z,97114.08
2019-05-18T07:17:34.501Z,97115.86
2019-05-18T07:20:04.085Z,97115.53
2019-05-18T07:22:34.672Z,97117.92
2019-05-18T07:25:05.354Z,97115.05
2019-05-18T07:27:37.650Z,97116.49
2019-05-18T07:30:08.793Z,97119.89
2019-05-18T07:32:40.718Z,97117.47
2019-05-18T07:35:11.922Z,97110.55
2019-05-18T07:37:42.533Z,97118.30
2019-05-18T07:40:13.339Z,97122.11
2019-05-18T07:42:43.890Z,97110.97
2019-05-18T07:45:15.717Z,97113.97
2019-05-18T07:47:46.280Z,97110.40
2019-05-18T07:50:17.103Z,97115.55
2019-05-18T07:52:47.751Z,97114.27
2019-05-18T07:55:18.805Z,97117.27
2019-05-18T07:57:49.481Z,97123.19
2019-05-18T08:00:20.141Z,97119.67
2019-05-18T08:02:50.674Z,97122.42
2019-05-18T08:05:21.927Z,97119.19
2019-05-18T08:07:52.596Z,97128.28
2019-05-18T08:10:36.954Z,97130.57
2019-05-18T08:13:08.355Z,97130.73
2019-05-18T08:15:39.057Z,97134.63
2019-05-18T08:18:09.637Z,97128.16
2019-05-18T08:20:40.236Z,97130.72
2019-05-18T08:23:10.813Z,97133.76
2019-05-18T08:25:41.419Z,97138.89
2019-05-18T08:28:11.996Z,97132.41
2019-05-18T08:30:42.569Z,97124.35
2019-05-18T08:33:17.079Z,97128.13
2019-05-18T08:35:47.707Z,97126.94
2019-05-18T08:38:18.295Z,97121.53
2019-05-18T08:40:48.936Z,97129.24
2019-05-18T08:43:20.626Z,97126.95
2019-05-18T08:45:52.447Z,97124.39
2019-05-18T08:48:23.039Z,97131.02
2019-05-18T08:50:53.641Z,97129.20
2019-05-18T08:53:24.217Z,97127.14
2019-05-18T08:55:54.830Z,97126.67
2019-05-18T08:58:25.496Z,97122.77
2019-05-18T09:00:56.070Z,97124.17
2019-05-18T09:03:26.668Z,97117.05
2019-05-18T09:05:57.315Z,97119.55
2019-05-18T09:08:27.913Z,97114.06
2019-05-18T09:10:58.476Z,97111.74
2019-05-18T09:13:29.108Z,97121.81
2019-05-18T09:15:59.758Z,97118.44
2019-05-18T09:18:30.321Z,97114.79
2019-05-18T09:21:00.906Z,97124.39
2019-05-18T09:23:33.499Z,97117.05
2019-05-18T09:26:04.096Z,97120.58
2019-05-18T09:28:34.721Z,97117.50
2019-05-18T09:31:05.299Z,97119.35
2019-05-18T09:33:35.913Z,97122.81
2019-05-18T09:36:06.483Z,97119.44
2019-05-18T09:38:41.687Z,97116.08
2019-05-18T09:41:11.813Z,97115.89
2019-05-18T09:43:42.411Z,97117.80
2019-05-18T09:46:14.671Z,97121.82
2019-05-18T09:48:45.220Z,97111.02
2019-05-18T09:51:15.869Z,97111.86
2019-05-18T09:53:51.447Z,97108.42
2019-05-18T09:56:18.801Z,97113.23
2019-05-18T09:58:50.507Z,97111.10
2019-05-18T10:01:21.108Z,97104.77
2019-05-18T10:03:51.889Z,97117.73
2019-05-18T10:06:22.523Z,97111.95
2019-05-18T10:08:53.082Z,97107.98
2019-05-18T10:11:23.794Z,97106.41
2019-05-18T10:13:54.904Z,97108.30
2019-05-18T10:16:25.528Z,97106.73
2019-05-18T10:18:56.098Z,97105.41
2019-05-18T10:21:26.694Z,97110.17
2019-05-18T10:23:57.273Z,97107.03
2019-05-18T10:26:27.880Z,97108.12
2019-05-18T10:28:58.476Z,97109.44
2019-05-18T10:31:29.078Z,97104.95
2019-05-18T10:33:59.632Z,97112.39
2019-05-18T10:36:30.166Z,97103.89
2019-05-18T10:39:00.786Z,97104.45
2019-05-18T10:41:31.461Z,97104.72
2019-05-18T10:44:02.057Z,97102.07
2019-05-18T10:46:33.439Z,97102.89
2019-05-18T10:49:04.046Z,97095.48
2019-05-18T10:51:34.682Z,97100.81
2019-05-18T10:54:05.258Z,97094.45
2019-05-18T10:56:35.837Z,97096.05
2019-05-18T10:59:06.498Z,97089.68
2019-05-18T11:01:37.079Z,97092.59
2019-05-18T11:04:10.431Z,97085.72
2019-05-18T11:06:41.042Z,97088.61
2019-05-18T11:09:11.624Z,97089.94
2019-05-18T11:11:43.919Z,97086.22
2019-05-18T11:14:14.471Z,97082.25
2019-05-18T11:16:45.502Z,97082.77
2019-05-18T11:19:16.326Z,97081.21
2019-05-18T11:21:46.962Z,97081.20
2019-05-18T11:24:17.578Z,97082.00
2019-05-18T11:26:48.197Z,97076.70
2019-05-18T11:29:22.645Z,97082.83
2019-05-18T11:31:51.158Z,97081.48
2019-05-18T11:34:21.781Z,97079.63
2019-05-18T11:36:52.432Z,97074.33
2019-05-18T11:39:22.993Z,97070.60
2019-05-18T11:41:53.629Z,97073.52
2019-05-18T11:44:24.183Z,97071.12
2019-05-18T11:46:55.973Z,97069.27
2019-05-18T11:49:29.045Z,97065.26
2019-05-18T11:51:58.899Z,97065.80
2019-05-18T11:54:29.495Z,97067.11
2019-05-18T11:57:00.107Z,97069.75
2019-05-18T11:59:30.800Z,97064.45
2019-05-18T12:02:01.480Z,97059.11
2019-05-18T12:04:32.038Z,97054.62
2019-05-18T12:07:02.669Z,97063.85
2019-05-18T12:09:33.200Z,97053.48
2019-05-18T12:12:03.837Z,97054.80
2019-05-18T12:14:36.106Z,97058.50
2019-05-18T12:17:06.734Z,97055.52
2019-05-18T12:19:37.390Z,97061.89
2019-05-18T12:22:08.134Z,97056.34
2019-05-18T12:24:38.713Z,97053.40
2019-05-18T12:27:10.611Z,97054.17
2019-05-18T12:29:41.160Z,97053.39
2019-05-18T12:32:11.846Z,97050.48
2019-05-18T12:34:44.954Z,97045.94
2019-05-18T12:37:23.145Z,97047.03
2019-05-18T12:39:54.859Z,97044.63
2019-05-18T12:42:25.523Z,97044.88
2019-05-18T12:44:56.088Z,97039.05
2019-05-18T12:47:26.785Z,97046.73
2019-05-18T12:49:57.407Z,97043.52
2019-05-18T12:52:27.976Z,97044.84
2019-05-18T12:54:58.584Z,97037.38
2019-05-18T12:57:29.176Z,97040.79
2019-05-18T13:00:02.943Z,97036.75
2019-05-18T13:02:33.653Z,97033.55
2019-05-18T13:05:04.374Z,97035.13
2019-05-18T13:07:36.417Z,97033.23
2019-05-18T13:10:08.014Z,97030.26
2019-05-18T13:12:38.677Z,97031.77
2019-05-18T13:15:12.905Z,97028.83
2019-05-18T13:17:43.499Z,97027.97
2019-05-18T13:20:17.678Z,97025.76
2019-05-18T13:22:48.329Z,97032.38
2019-05-18T13:25:19.380Z,97028.95
2019-05-18T13:27:50.021Z,97021.77
2019-05-18T13:30:22.669Z,97028.36
2019-05-18T13:32:53.222Z,97021.68
2019-05-18T13:35:23.795Z,97026.44
2019-05-18T13:37:54.408Z,97020.31
2019-05-18T13:40:25.050Z,97022.41
2019-05-18T13:42:55.652Z,97012.53
2019-05-18T13:45:26.253Z,97011.51
2019-05-18T13:47:56.875Z,97010.34
2019-05-18T13:50:27.415Z,97008.61
2019-05-18T13:52:58.098Z,97002.33
2019-05-18T13:55:30.282Z,96998.83
2019-05-18T13:58:00.943Z,96994.23
2019-05-18T14:00:31.491Z,97003.15
2019-05-18T14:03:02.160Z,96996.67
2019-05-18T14:05:35.543Z,96998.27
2019-05-18T14:08:06.274Z,96995.56
2019-05-18T14:10:36.794Z,96994.27
2019-05-18T14:13:07.457Z,96999.50
2019-05-18T14:15:38.115Z,96990.67
2019-05-18T14:18:08.797Z,96986.68
2019-05-18T14:20:39.351Z,96980.16
2019-05-18T14:23:11.103Z,96983.92
2019-05-18T14:25:46.155Z,96982.98
2019-05-18T14:28:19.284Z,96980.45
2019-05-18T14:30:49.885Z,96981.16
2019-05-18T14:33:20.481Z,96982.44
2019-05-18T14:35:51.092Z,96976.67
2019-05-18T14:38:21.709Z,96981.16
2019-05-18T14:40:52.246Z,96982.81
2019-05-18T14:43:28.983Z,96982.31
2019-05-18T14:45:59.606Z,96985.47
2019-05-18T14:48:33.872Z,96979.17
2019-05-18T14:51:04.428Z,96987.44
2019-05-18T14:53:35.103Z,96993.64
2019-05-18T14:56:06.351Z,96990.22
2019-05-18T14:58:36.947Z,96994.23
2019-05-18T15:01:07.593Z,96992.14
2019-05-18T15:03:38.314Z,96997.50
2019-05-18T15:06:08.889Z,96994.88
2019-05-18T15:08:39.515Z,96999.16
2019-05-18T15:11:10.102Z,96988.02
2019-05-18T15:13:40.775Z,96994.14
2019-05-18T15:16:11.402Z,96986.42
2019-05-18T15:18:42.030Z,96987.80
2019-05-18T15:21:12.670Z,96990.58
2019-05-18T15:23:43.344Z,96991.77
2019-05-18T15:26:14.082Z,96994.99
2019-05-18T15:28:44.711Z,96996.02
2019-05-18T15:31:17.559Z,96994.42
2019-05-18T15:33:48.260Z,96995.19
2019-05-18T15:36:20.906Z,96996.28
2019-05-18T15:38:51.553Z,96998.37
2019-05-18T15:41:22.093Z,97002.64
2019-05-18T15:43:52.733Z,97016.28
2019-05-18T15:46:26.397Z,97036.27
2019-05-18T15:48:57.231Z,97041.13
2019-05-18T15:51:27.951Z,97039.31
2019-05-18T15:53:58.633Z,97045.25
2019-05-18T15:56:29.317Z,97049.82
2019-05-18T15:59:00.108Z,97048.80
2019-05-18T16:01:30.724Z,97062.05
2019-05-18T16:04:01.432Z,97067.67
2019-05-18T16:06:33.349Z,97078.30
2019-05-18T16:09:05.525Z,97088.36
2019-05-18T16:11:36.076Z,97092.59
2019-05-18T16:14:06.841Z,97091.02
2019-05-18T16:16:38.096Z,97100.00
2019-05-18T16:19:08.752Z,97104.39
2019-05-18T16:21:39.820Z,97103.77
2019-05-18T16:24:10.455Z,97097.95
2019-05-18T16:26:41.036Z,97088.28
2019-05-18T16:29:13.065Z,97082.55
2019-05-18T16:31:43.667Z,97081.09
2019-05-18T16:34:14.375Z,97070.52
2019-05-18T16:36:45.090Z,97065.11
2019-05-18T16:39:15.701Z,97060.90
2019-05-18T16:41:47.001Z,97061.70
2019-05-18T16:44:17.589Z,97060.91
2019-05-18T16:46:48.205Z,97072.73
2019-05-18T16:49:18.877Z,97078.81
2019-05-18T16:51:50.495Z,97084.19
2019-05-18T16:54:21.179Z,97083.77
2019-05-18T17:01:00.426Z,97092.38
2019-05-18T17:06:38.776Z,97122.76
2019-05-18T17:13:04.595Z,97133.20
2019-05-18T17:19:32.218Z,97114.09
2019-05-18T17:26:09.132Z,97095.81
2019-05-18T17:32:39.894Z,97070.95
2019-05-18T17:39:07.793Z,97070.03
2019-05-18T17:45:49.048Z,97067.48
2019-05-18T17:52:14.642Z,97065.63
2019-05-18T17:58:41.700Z,97074.14
2019-05-18T18:05:07.521Z,97088.42
2019-05-18T18:14:43.217Z,97107.27
2019-05-18T18:21:22.861Z,97096.84
2019-05-18T18:27:52.028Z,97094.93
2019-05-18T18:34:16.596Z,97102.47
2019-05-18T18:40:42.448Z,97097.92
2019-05-18T18:47:11.171Z,97104.34
2019-05-18T18:53:39.378Z,97106.88
2019-05-18T19:00:06.964Z,97116.84
2019-05-18T19:06:44.128Z,97123.08
2019-05-18T19:16:47.099Z,97131.86
2019-05-18T19:23:12.916Z,97161.58
2019-05-18T19:29:38.513Z,97158.87
2019-05-18T19:36:17.470Z,97172.33
2019-05-18T19:42:41.281Z,97185.08
2019-05-18T19:49:08.761Z,97181.13
2019-05-18T19:55:38.184Z,97192.94
2019-05-18T20:02:19.154Z,97203.55
2019-05-18T20:08:21.392Z,97222.70
2019-05-18T20:14:51.397Z,97242.78
2019-05-18T20:21:22.111Z,97246.80
2019-05-18T20:27:50.305Z,97244.49
2019-05-18T20:34:16.132Z,97246.53
2019-05-18T20:40:41.943Z,97245.12
2019-05-18T20:47:20.668Z,97238.70
2019-05-18T20:53:46.511Z,97236.06
2019-05-18T20:59:34.153Z,97242.94
2019-05-18T21:06:01.997Z,97238.14
2019-05-18T21:12:40.715Z,97227.57
2019-05-18T21:18:56.320Z,97214.45
2019-05-18T21:25:24.519Z,97208.43
2019-05-18T21:31:54.369Z,97192.05
2019-05-18T21:38:22.206Z,97189.81
2019-05-18T21:44:51.053Z,97202.97
2019-05-18T21:51:16.634Z,97207.81
2019-05-18T21:57:57.841Z,97197.01
2019-05-18T22:04:21.438Z,97192.04
2019-05-18T22:10:48.471Z,97192.42
2019-05-18T22:20:50.229Z,97186.60
2019-05-18T22:27:29.188Z,97173.80
2019-05-18T22:33:52.992Z,97169.73
2019-05-18T22:40:22.036Z,97172.50
2019-05-18T22:46:49.873Z,97175.34
2019-05-18T22:53:26.801Z,97179.34
2019-05-18T22:59:54.411Z,97166.78
2019-05-18T23:06:20.268Z,97148.93
2019-05-18T23:12:57.181Z,97141.63
2019-05-18T23:22:47.005Z,97135.02
2019-05-18T23:29:00.931Z,97131.11
2019-05-18T23:35:28.773Z,97117.05
2019-05-18T23:41:54.595Z,97115.94
2019-05-18T23:48:31.521Z,97108.14
2019-05-18T23:54:57.341Z,97102.84
